createdAt,value
2022-10-11T00:00:17.923Z,91.36
2022-10-11T00:01:20.736Z,91.33
2022-10-11T00:02:26.379Z,91.31
2022-10-11T00:04:00.991Z,91.33
2022-10-11T00:05:03.641Z,91.32
2022-10-11T00:06:06.948Z,91.34
2022-10-11T00:07:41.854Z,91.31
2022-10-11T00:08:44.632Z,91.34
2022-10-11T00:09:47.344Z,91.36
2022-10-11T00:11:21.840Z,91.34
2022-10-11T00:12:24.496Z,91.34
2022-10-11T00:13:27.237Z,91.36
2022-10-11T00:15:01.673Z,91.37
2022-10-11T00:16:04.658Z,91.41
2022-10-11T00:17:07.709Z,91.38
2022-10-11T00:18:45.925Z,91.43
2022-10-11T00:19:48.595Z,91.45
2022-10-11T00:20:51.380Z,91.43
2022-10-11T00:22:25.810Z,91.49
2022-10-11T00:23:28.447Z,91.46
2022-10-11T00:24:31.177Z,91.52
2022-10-11T00:26:06.249Z,91.52
2022-10-11T00:27:09.126Z,91.49
2022-10-11T00:28:12.170Z,91.57
2022-10-11T00:29:47.235Z,91.51
2022-10-11T00:30:49.877Z,91.71
2022-10-11T00:31:53.731Z,91.90
2022-10-11T00:33:28.196Z,92.02
2022-10-11T00:34:30.894Z,92.05
2022-10-11T00:35:33.592Z,92.00
2022-10-11T00:37:08.033Z,91.98
2022-10-11T00:38:10.668Z,91.91
2022-10-11T00:39:14.540Z,91.87
2022-10-11T00:40:49.232Z,91.84
2022-10-11T00:41:51.957Z,91.80
2022-10-11T00:42:54.644Z,91.75
2022-10-11T00:44:29.306Z,91.80
2022-10-11T00:45:32.278Z,91.76
2022-10-11T00:46:35.040Z,91.69
2022-10-11T00:48:13.930Z,91.70
2022-10-11T00:49:16.699Z,91.71
2022-10-11T00:50:19.382Z,91.71
2022-10-11T00:51:54.998Z,91.66
2022-10-11T00:52:57.731Z,91.65
2022-10-11T00:54:00.457Z,91.64
2022-10-11T00:55:34.987Z,91.59
2022-10-11T00:56:37.642Z,91.59
2022-10-11T00:57:40.312Z,91.63
2022-10-11T00:59:14.693Z,91.47
2022-10-11T01:00:17.764Z,91.49
2022-10-11T01:01:20.633Z,91.42
2022-10-11T01:02:24.073Z,91.40
2022-10-11T01:03:58.565Z,91.45
2022-10-11T01:05:31.345Z,91.55
2022-10-11T01:06:34.057Z,91.52
2022-10-11T01:08:08.471Z,91.59
2022-10-11T01:09:11.143Z,91.59
2022-10-11T01:10:13.785Z,91.56
2022-10-11T01:11:48.182Z,91.52
2022-10-11T01:12:50.874Z,91.59
2022-10-11T01:13:53.566Z,91.58
2022-10-11T01:15:28.112Z,91.58
2022-10-11T01:16:30.862Z,91.57
2022-10-11T01:17:33.544Z,91.62
2022-10-11T01:19:07.904Z,91.61
2022-10-11T01:20:10.541Z,91.61
2022-10-11T01:21:13.232Z,91.59
2022-10-11T01:22:47.619Z,91.61
2022-10-11T01:23:50.398Z,91.56
2022-10-11T01:24:59.851Z,91.51
2022-10-11T01:26:34.417Z,91.52
2022-10-11T01:27:37.033Z,91.58
2022-10-11T01:28:40.074Z,91.61
2022-10-11T01:30:15.151Z,91.63
2022-10-11T01:31:17.902Z,91.78
2022-10-11T01:32:20.628Z,91.75
2022-10-11T01:33:55.180Z,91.82
2022-10-11T01:34:57.809Z,91.82
2022-10-11T01:36:00.601Z,91.85
2022-10-11T01:37:36.338Z,91.91
2022-10-11T01:38:39.101Z,91.91
2022-10-11T01:39:41.797Z,91.89
2022-10-11T01:41:16.274Z,91.82
2022-10-11T01:42:19.035Z,91.84
2022-10-11T01:43:21.712Z,91.69
2022-10-11T01:44:56.112Z,91.54
2022-10-11T01:45:58.939Z,91.49
2022-10-11T01:47:02.130Z,91.50
2022-10-11T01:48:36.534Z,91.45
2022-10-11T01:49:39.278Z,91.45
2022-10-11T01:50:41.955Z,91.41
2022-10-11T01:52:16.350Z,91.40
2022-10-11T01:53:19.175Z,91.46
2022-10-11T01:54:21.947Z,91.44
2022-10-11T01:56:32.692Z,91.48
2022-10-11T01:57:35.446Z,91.47
2022-10-11T01:58:38.324Z,91.45
2022-10-11T02:00:18.565Z,91.47
2022-10-11T02:01:21.635Z,91.47
2022-10-11T02:02:24.836Z,91.44
2022-10-11T02:03:59.451Z,91.43
2022-10-11T02:05:02.215Z,91.47
2022-10-11T02:06:05.030Z,91.47
2022-10-11T02:07:39.693Z,91.52
2022-10-11T02:08:42.239Z,91.74
2022-10-11T02:09:48.777Z,92.10
2022-10-11T02:11:23.280Z,92.06
2022-10-11T02:12:25.861Z,92.04
2022-10-11T02:13:28.667Z,92.06
2022-10-11T02:15:03.149Z,92.08
2022-10-11T02:16:06.199Z,92.04
2022-10-11T02:17:09.145Z,91.99
2022-10-11T02:18:43.482Z,91.99
2022-10-11T02:19:46.159Z,91.96
2022-10-11T02:20:49.016Z,91.90
2022-10-11T02:22:23.455Z,91.94
2022-10-11T02:23:26.234Z,91.95
2022-10-11T02:24:28.850Z,92.01
2022-10-11T02:26:03.898Z,92.09
2022-10-11T02:27:06.895Z,92.13
2022-10-11T02:28:09.634Z,92.14
2022-10-11T02:29:44.468Z,92.14
2022-10-11T02:30:47.268Z,92.19
2022-10-11T02:31:49.959Z,92.14
2022-10-11T02:33:24.480Z,92.18
2022-10-11T02:34:27.391Z,92.18
2022-10-11T02:35:30.215Z,92.17
2022-10-11T02:37:05.009Z,92.18
2022-10-11T02:38:07.580Z,92.15
2022-10-11T02:39:10.473Z,92.17
2022-10-11T02:40:44.886Z,92.17
2022-10-11T02:41:47.543Z,92.17
2022-10-11T02:42:50.269Z,92.16
2022-10-11T02:44:24.647Z,92.21
2022-10-11T02:45:27.271Z,92.17
2022-10-11T02:46:30.099Z,92.17
2022-10-11T02:48:04.937Z,92.21
2022-10-11T02:49:07.723Z,92.20
2022-10-11T02:50:10.388Z,92.19
2022-10-11T02:51:44.866Z,92.17
2022-10-11T02:52:47.543Z,92.21
2022-10-11T02:53:50.268Z,92.25
2022-10-11T02:55:24.570Z,92.26
2022-10-11T02:56:27.312Z,92.28
2022-10-11T02:57:29.963Z,92.24
2022-10-11T02:59:04.487Z,92.24
2022-10-11T03:00:17.975Z,92.28
2022-10-11T03:01:20.970Z,92.21
2022-10-11T03:02:24.166Z,92.13
2022-10-11T03:03:58.716Z,92.13
2022-10-11T03:05:01.334Z,92.14
2022-10-11T03:06:04.349Z,92.12
2022-10-11T03:07:39.052Z,92.14
2022-10-11T03:08:41.726Z,92.07
2022-10-11T03:09:44.492Z,92.04
2022-10-11T03:11:19.032Z,92.06
2022-10-11T03:12:21.740Z,92.04
2022-10-11T03:13:24.472Z,92.16
2022-10-11T03:14:59.114Z,92.08
2022-10-11T03:16:09.723Z,92.10
2022-10-11T03:17:40.469Z,92.10
2022-10-11T03:19:19.025Z,92.10
2022-10-11T03:20:22.134Z,92.12
2022-10-11T03:21:24.877Z,92.07
2022-10-11T03:22:59.202Z,92.04
2022-10-11T03:24:01.964Z,91.99
2022-10-11T03:25:10.110Z,91.99
2022-10-11T03:26:45.454Z,92.00
2022-10-11T03:27:48.235Z,92.05
2022-10-11T03:28:51.196Z,92.06
2022-10-11T03:30:25.994Z,92.07
2022-10-11T03:31:28.702Z,92.06
2022-10-11T03:32:31.460Z,92.06
2022-10-11T03:34:05.938Z,92.08
2022-10-11T03:35:08.712Z,92.12
2022-10-11T03:36:11.866Z,92.16
2022-10-11T03:37:46.438Z,92.17
2022-10-11T03:38:53.378Z,92.25
2022-10-11T03:39:56.182Z,92.26
2022-10-11T03:41:30.631Z,92.34
2022-10-11T03:42:33.411Z,92.31
2022-10-11T03:43:36.106Z,92.32
2022-10-11T03:45:10.683Z,92.27
2022-10-11T03:46:14.379Z,92.24
2022-10-11T03:47:17.033Z,92.25
2022-10-11T03:48:51.665Z,92.26
2022-10-11T03:49:54.383Z,92.27
2022-10-11T03:50:57.079Z,92.26
2022-10-11T03:52:31.579Z,92.16
2022-10-11T03:53:34.817Z,92.23
2022-10-11T03:54:37.884Z,92.21
2022-10-11T03:56:14.762Z,92.16
2022-10-11T03:57:17.948Z,92.17
2022-10-11T03:58:20.801Z,92.16
2022-10-11T03:59:55.283Z,92.18
2022-10-11T04:00:17.668Z,92.19
2022-10-11T04:01:20.658Z,92.22
2022-10-11T04:02:23.993Z,92.28
2022-10-11T04:04:02.511Z,92.25
2022-10-11T04:05:46.248Z,92.37
2022-10-11T04:06:49.688Z,92.38
2022-10-11T04:07:52.662Z,92.35
2022-10-11T04:09:33.225Z,92.38
2022-10-11T04:10:36.095Z,92.39
2022-10-11T04:11:38.810Z,92.37
2022-10-11T04:13:13.322Z,92.31
2022-10-11T04:14:16.230Z,92.34
2022-10-11T04:15:18.933Z,92.33
2022-10-11T04:16:58.356Z,92.29
2022-10-11T04:18:02.852Z,92.37
2022-10-11T04:19:05.509Z,92.33
2022-10-11T04:20:39.938Z,92.28
2022-10-11T04:21:42.646Z,92.19
2022-10-11T04:22:45.391Z,92.25
2022-10-11T04:24:19.988Z,92.22
2022-10-11T04:25:22.707Z,92.21
2022-10-11T04:26:25.371Z,92.16
2022-10-11T04:27:59.975Z,92.18
2022-10-11T04:29:03.376Z,92.07
2022-10-11T04:30:12.905Z,92.09
2022-10-11T04:31:47.376Z,92.17
2022-10-11T04:32:49.973Z,92.19
2022-10-11T04:33:52.599Z,92.24
2022-10-11T04:35:27.275Z,92.22
2022-10-11T04:36:30.026Z,92.23
2022-10-11T04:37:36.307Z,92.22
2022-10-11T04:39:10.741Z,92.23
2022-10-11T04:40:13.342Z,92.19
2022-10-11T04:41:16.201Z,92.20
2022-10-11T04:42:50.701Z,92.15
2022-10-11T04:43:53.339Z,92.10
2022-10-11T04:44:56.171Z,92.06
2022-10-11T04:46:43.791Z,92.07
2022-10-11T04:47:46.541Z,92.03
2022-10-11T04:48:49.176Z,92.09
2022-10-11T04:50:23.677Z,92.09
2022-10-11T04:51:26.440Z,92.12
2022-10-11T04:52:31.720Z,92.16
2022-10-11T04:54:06.385Z,92.18
2022-10-11T04:55:09.188Z,92.19
2022-10-11T04:56:12.513Z,92.16
2022-10-11T04:57:47.126Z,92.24
2022-10-11T04:58:49.832Z,92.17
2022-10-11T04:59:56.012Z,92.20
2022-10-11T05:00:17.603Z,92.20
2022-10-11T05:01:20.433Z,92.29
2022-10-11T05:02:23.638Z,92.27
2022-10-11T05:03:58.474Z,92.25
2022-10-11T05:05:01.349Z,92.35
2022-10-11T05:06:11.235Z,92.39
2022-10-11T05:07:46.128Z,92.55
2022-10-11T05:08:49.185Z,92.66
2022-10-11T05:09:52.041Z,92.95
2022-10-11T05:11:26.744Z,93.26
2022-10-11T05:12:29.719Z,93.15
2022-10-11T05:13:32.620Z,93.08
2022-10-11T05:15:07.023Z,93.08
2022-10-11T05:16:16.638Z,93.04
2022-10-11T05:17:19.583Z,93.07
2022-10-11T05:18:54.119Z,93.09
2022-10-11T05:19:57.055Z,93.06
2022-10-11T05:20:59.782Z,93.05
2022-10-11T05:22:34.480Z,93.03
2022-10-11T05:23:37.176Z,93.02
2022-10-11T05:24:40.178Z,92.99
2022-10-11T05:26:15.553Z,93.00
2022-10-11T05:27:18.382Z,92.97
2022-10-11T05:28:21.457Z,92.97
2022-10-11T05:29:56.548Z,92.98
2022-10-11T05:30:59.491Z,92.97
2022-10-11T05:32:02.175Z,93.03
2022-10-11T05:33:40.633Z,93.03
2022-10-11T05:34:43.357Z,92.99
2022-10-11T05:35:45.977Z,93.02
2022-10-11T05:37:21.850Z,93.01
2022-10-11T05:38:24.476Z,93.02
2022-10-11T05:39:27.329Z,93.04
2022-10-11T05:41:01.765Z,93.05
2022-10-11T05:42:08.896Z,93.03
2022-10-11T05:43:12.552Z,93.05
2022-10-11T05:44:47.268Z,93.10
2022-10-11T05:45:50.005Z,93.10
2022-10-11T05:46:53.874Z,93.22
2022-10-11T05:48:28.520Z,93.25
2022-10-11T05:49:31.210Z,93.33
2022-10-11T05:50:33.950Z,93.36
2022-10-11T05:52:08.695Z,93.35
2022-10-11T05:53:11.613Z,93.37
2022-10-11T05:54:14.332Z,93.42
2022-10-11T05:55:49.242Z,93.52
2022-10-11T05:56:52.581Z,93.55
2022-10-11T05:57:55.553Z,93.49
2022-10-11T05:59:30.335Z,93.58
2022-10-11T06:00:18.463Z,93.55
2022-10-11T06:01:21.467Z,93.64
2022-10-11T06:02:24.711Z,93.62
2022-10-11T06:03:59.162Z,93.63
2022-10-11T06:05:02.119Z,93.72
2022-10-11T06:06:05.489Z,93.67
2022-10-11T06:07:40.533Z,93.67
2022-10-11T06:08:43.263Z,93.71
2022-10-11T06:09:45.993Z,93.67
2022-10-11T06:11:20.620Z,93.70
2022-10-11T06:12:23.404Z,93.68
2022-10-11T06:13:26.134Z,93.73
2022-10-11T06:15:00.728Z,93.71
2022-10-11T06:16:03.924Z,93.72
2022-10-11T06:17:07.035Z,93.73
2022-10-11T06:18:41.559Z,93.80
2022-10-11T06:19:44.323Z,93.73
2022-10-11T06:20:46.874Z,93.74
2022-10-11T06:22:21.362Z,93.82
2022-10-11T06:23:24.123Z,93.82
2022-10-11T06:24:26.861Z,93.89
2022-10-11T06:26:01.425Z,93.95
2022-10-11T06:27:05.276Z,93.95
2022-10-11T06:28:08.146Z,94.02
2022-10-11T06:29:43.148Z,93.97
2022-10-11T06:30:45.821Z,94.18
2022-10-11T06:31:48.496Z,94.11
2022-10-11T06:33:22.991Z,94.12
2022-10-11T06:34:25.875Z,94.19
2022-10-11T06:35:28.522Z,94.34
2022-10-11T06:37:03.125Z,94.24
2022-10-11T06:38:05.909Z,94.26
2022-10-11T06:39:08.800Z,94.26
2022-10-11T06:40:43.661Z,94.28
2022-10-11T06:41:46.351Z,94.40
2022-10-11T06:42:49.049Z,94.56
2022-10-11T06:44:23.524Z,94.49
2022-10-11T06:45:26.232Z,94.55
2022-10-11T06:46:28.943Z,94.65
2022-10-11T06:48:03.545Z,94.61
2022-10-11T06:49:06.227Z,94.75
2022-10-11T06:50:14.800Z,94.58
2022-10-11T06:52:23.618Z,94.71
2022-10-11T06:53:26.299Z,94.75
2022-10-11T06:54:28.951Z,94.80
2022-10-11T06:56:09.570Z,94.80
2022-10-11T06:57:12.568Z,94.79
2022-10-11T06:58:15.792Z,94.84
2022-10-11T06:59:50.465Z,94.78
2022-10-11T07:00:18.604Z,94.72
2022-10-11T07:01:21.753Z,94.70
2022-10-11T07:02:24.960Z,94.74
2022-10-11T07:03:59.339Z,94.84
2022-10-11T07:05:02.381Z,94.97
2022-10-11T07:06:09.024Z,94.84
2022-10-11T07:07:44.005Z,95.31
2022-10-11T07:08:46.811Z,95.15
2022-10-11T07:09:49.570Z,95.10
2022-10-11T07:11:24.094Z,95.07
2022-10-11T07:12:26.848Z,95.01
2022-10-11T07:13:29.664Z,95.05
2022-10-11T07:15:04.237Z,95.09
2022-10-11T07:16:07.986Z,95.07
2022-10-11T07:17:11.192Z,95.04
2022-10-11T07:18:45.927Z,94.98
2022-10-11T07:19:54.495Z,94.97
2022-10-11T07:20:57.296Z,94.99
2022-10-11T07:22:31.814Z,95.08
2022-10-11T07:23:34.503Z,95.09
2022-10-11T07:24:37.404Z,95.21
2022-10-11T07:26:12.492Z,95.32
2022-10-11T07:27:22.890Z,95.46
2022-10-11T07:28:25.871Z,95.33
2022-10-11T07:30:01.126Z,95.37
2022-10-11T07:31:03.890Z,95.41
2022-10-11T07:32:06.631Z,95.40
2022-10-11T07:33:41.298Z,95.23
2022-10-11T07:34:44.187Z,95.19
2022-10-11T07:35:53.763Z,95.08
2022-10-11T07:37:28.796Z,95.13
2022-10-11T07:38:31.743Z,95.13
2022-10-11T07:39:34.618Z,95.30
2022-10-11T07:41:09.470Z,95.35
2022-10-11T07:42:12.225Z,95.17
2022-10-11T07:43:15.072Z,95.18
2022-10-11T07:44:49.542Z,95.19
2022-10-11T07:45:52.257Z,95.46
2022-10-11T07:46:56.779Z,95.39
2022-10-11T07:48:35.398Z,95.81
2022-10-11T07:49:38.362Z,95.79
2022-10-11T07:50:41.139Z,95.81
2022-10-11T07:52:15.590Z,95.66
2022-10-11T07:53:18.352Z,95.43
2022-10-11T07:54:21.249Z,95.65
2022-10-11T07:55:55.684Z,95.59
2022-10-11T07:56:59.961Z,95.48
2022-10-11T07:58:02.979Z,95.34
2022-10-11T07:59:37.678Z,95.25
2022-10-11T08:00:17.495Z,95.30
2022-10-11T08:01:20.813Z,95.30
2022-10-11T08:02:24.557Z,95.29
2022-10-11T08:03:59.124Z,95.48
2022-10-11T08:05:01.838Z,95.39
2022-10-11T08:06:05.266Z,95.44
2022-10-11T08:07:44.982Z,95.91
2022-10-11T08:08:47.773Z,95.75
2022-10-11T08:09:50.505Z,95.95
2022-10-11T08:11:25.141Z,95.70
2022-10-11T08:12:27.845Z,95.82
2022-10-11T08:13:30.514Z,95.96
2022-10-11T08:15:05.331Z,95.78
2022-10-11T08:16:08.731Z,95.47
2022-10-11T08:17:11.767Z,95.43
2022-10-11T08:18:46.331Z,95.42
2022-10-11T08:19:49.158Z,95.27
2022-10-11T08:20:52.141Z,95.47
2022-10-11T08:22:27.136Z,95.49
2022-10-11T08:23:29.849Z,95.56
2022-10-11T08:24:37.296Z,95.58
2022-10-11T08:26:13.501Z,95.16
2022-10-11T08:27:16.340Z,95.12
2022-10-11T08:28:19.279Z,95.01
2022-10-11T08:29:54.799Z,94.82
2022-10-11T08:30:57.592Z,94.79
2022-10-11T08:32:00.344Z,94.81
2022-10-11T08:33:35.324Z,94.68
2022-10-11T08:34:38.015Z,94.62
2022-10-11T08:35:40.800Z,94.65
2022-10-11T08:37:16.681Z,94.75
2022-10-11T08:38:19.434Z,94.83
2022-10-11T08:39:22.220Z,94.78
2022-10-11T08:40:56.842Z,94.76
2022-10-11T08:41:59.631Z,94.61
2022-10-11T08:43:02.517Z,94.52
2022-10-11T08:45:11.511Z,94.42
2022-10-11T08:46:15.420Z,94.60
2022-10-11T08:47:18.760Z,94.54
2022-10-11T08:48:53.466Z,94.43
2022-10-11T08:49:56.279Z,94.40
2022-10-11T08:50:59.272Z,94.28
2022-10-11T08:52:33.926Z,94.25
2022-10-11T08:53:36.669Z,94.17
2022-10-11T08:54:45.177Z,94.13
2022-10-11T08:56:19.842Z,94.12
2022-10-11T08:57:22.640Z,94.93
2022-10-11T08:58:25.545Z,94.83
2022-10-11T09:00:00.070Z,94.44
2022-10-11T09:00:18.088Z,94.44
2022-10-11T09:01:20.968Z,94.36
2022-10-11T09:02:24.235Z,94.67
2022-10-11T09:04:33.708Z,93.48
2022-10-11T09:05:36.607Z,93.68
2022-10-11T09:06:39.511Z,92.60
2022-10-11T09:08:17.536Z,92.78
2022-10-11T09:09:20.341Z,93.36
2022-10-11T09:10:23.223Z,93.13
2022-10-11T09:11:57.962Z,93.15
2022-10-11T09:13:00.735Z,92.73
2022-10-11T09:14:03.589Z,92.35
2022-10-11T09:15:38.197Z,91.54
2022-10-11T09:16:41.103Z,91.97
2022-10-11T09:17:44.082Z,92.17
2022-10-11T09:19:18.595Z,92.37
2022-10-11T09:20:21.587Z,92.23
2022-10-11T09:21:24.240Z,91.38
2022-10-11T09:22:58.892Z,90.12
2022-10-11T09:24:01.647Z,90.40
2022-10-11T09:25:04.352Z,90.52
2022-10-11T09:26:39.093Z,90.48
2022-10-11T09:28:07.385Z,90.39
2022-10-11T09:29:11.158Z,88.95
2022-10-11T09:30:45.803Z,88.32
2022-10-11T09:31:48.657Z,87.61
2022-10-11T09:32:51.570Z,87.54
2022-10-11T09:34:26.217Z,85.96
2022-10-11T09:35:29.053Z,86.07
2022-10-11T09:36:32.040Z,85.77
2022-10-11T09:38:06.622Z,85.60
2022-10-11T09:39:12.491Z,84.50
2022-10-11T09:40:15.325Z,85.32
2022-10-11T09:41:49.854Z,85.73
2022-10-11T09:42:52.681Z,85.33
2022-10-11T09:43:55.605Z,85.92
2022-10-11T09:45:30.350Z,86.10
2022-10-11T09:46:40.698Z,85.52
2022-10-11T09:47:43.455Z,83.67
2022-10-11T09:49:18.242Z,83.66
2022-10-11T09:50:21.115Z,83.93
2022-10-11T09:51:24.255Z,83.76
2022-10-11T09:52:58.861Z,84.34
2022-10-11T09:54:01.607Z,83.58
2022-10-11T09:55:04.324Z,82.21
2022-10-11T09:56:43.601Z,82.12
2022-10-11T09:57:46.266Z,81.79
2022-10-11T09:58:48.929Z,82.31
2022-10-11T10:00:17.828Z,82.39
2022-10-11T10:01:20.960Z,79.18
2022-10-11T10:02:24.148Z,79.36
2022-10-11T10:03:58.941Z,79.34
2022-10-11T10:05:01.609Z,78.15
2022-10-11T10:06:04.907Z,79.41
2022-10-11T10:07:39.886Z,79.09
2022-10-11T10:08:45.554Z,79.00
2022-10-11T10:09:48.273Z,78.02
2022-10-11T10:11:22.959Z,78.59
2022-10-11T10:12:25.687Z,78.17
2022-10-11T10:13:28.358Z,77.86
2022-10-11T10:15:03.067Z,77.15
2022-10-11T10:16:06.060Z,75.18
2022-10-11T10:17:08.906Z,76.48
2022-10-11T10:18:43.622Z,75.21
2022-10-11T10:19:50.816Z,75.08
2022-10-11T10:20:53.546Z,75.25
2022-10-11T10:22:28.166Z,76.16
2022-10-11T10:23:30.872Z,73.69
2022-10-11T10:24:33.861Z,75.58
2022-10-11T10:26:09.245Z,75.19
2022-10-11T10:27:12.217Z,74.25
2022-10-11T10:28:15.080Z,73.75
2022-10-11T10:29:50.280Z,73.59
2022-10-11T10:30:53.256Z,73.62
2022-10-11T10:32:19.723Z,73.38
2022-10-11T10:34:01.320Z,71.63
2022-10-11T10:35:04.014Z,72.27
2022-10-11T10:36:07.292Z,70.40
2022-10-11T10:37:42.522Z,72.39
2022-10-11T10:38:48.666Z,72.65
2022-10-11T10:39:54.752Z,70.73
2022-10-11T10:41:29.309Z,69.92
2022-10-11T10:42:32.120Z,70.31
2022-10-11T10:43:34.732Z,68.53
2022-10-11T10:45:20.054Z,69.37
2022-10-11T10:46:24.130Z,70.44
2022-10-11T10:47:26.803Z,68.43
2022-10-11T10:49:55.024Z,68.94
2022-10-11T10:50:57.996Z,67.09
2022-10-11T10:52:07.462Z,68.32
2022-10-11T10:53:41.930Z,69.61
2022-10-11T10:54:44.661Z,71.58
2022-10-11T10:55:47.473Z,67.93
2022-10-11T10:57:22.846Z,68.58
2022-10-11T10:58:25.609Z,65.63
2022-10-11T10:59:28.379Z,66.40
2022-10-11T11:00:17.310Z,68.44
2022-10-11T11:01:20.375Z,69.18
2022-10-11T11:02:45.695Z,69.76
2022-10-11T11:04:20.580Z,66.90
2022-10-11T11:05:23.587Z,66.62
2022-10-11T11:06:26.407Z,66.82
2022-10-11T11:08:05.820Z,66.15
2022-10-11T11:09:08.562Z,64.79
2022-10-11T11:10:11.470Z,65.47
2022-10-11T11:11:45.996Z,66.88
2022-10-11T11:12:49.392Z,66.50
2022-10-11T11:13:52.019Z,66.15
2022-10-11T11:15:37.943Z,63.49
2022-10-11T11:16:41.206Z,63.20
2022-10-11T11:17:43.941Z,65.41
2022-10-11T11:19:18.315Z,63.73
2022-10-11T11:20:21.086Z,65.72
2022-10-11T11:21:24.403Z,65.60
2022-10-11T11:23:09.531Z,66.79
2022-10-11T11:24:12.251Z,66.88
2022-10-11T11:25:14.968Z,66.69
2022-10-11T11:26:56.546Z,66.62
2022-10-11T11:27:59.351Z,66.67
2022-10-11T11:29:02.654Z,65.93
2022-10-11T11:30:41.750Z,67.45
2022-10-11T11:31:45.234Z,65.23
2022-10-11T11:32:51.490Z,63.33
2022-10-11T11:34:29.404Z,66.23
2022-10-11T11:35:32.365Z,65.80
2022-10-11T11:36:35.309Z,65.72
2022-10-11T11:38:12.304Z,63.54
2022-10-11T11:39:21.208Z,64.31
2022-10-11T11:40:23.944Z,64.89
2022-10-11T11:41:59.225Z,65.60
2022-10-11T11:43:01.897Z,67.47
2022-10-11T11:44:04.552Z,67.45
2022-10-11T11:45:45.258Z,66.87
2022-10-11T11:46:48.026Z,64.03
2022-10-11T11:47:50.811Z,64.07
2022-10-11T11:49:25.355Z,63.04
2022-10-11T11:50:30.470Z,61.94
2022-10-11T11:51:37.001Z,63.00
2022-10-11T11:53:11.521Z,63.66
2022-10-11T11:54:14.344Z,63.76
2022-10-11T11:55:17.003Z,65.15
2022-10-11T11:56:51.558Z,63.85
2022-10-11T11:57:54.340Z,63.97
2022-10-11T11:59:03.295Z,66.53
2022-10-11T12:00:18.108Z,66.68
2022-10-11T12:01:20.825Z,67.39
2022-10-11T12:02:28.938Z,63.55
2022-10-11T12:04:03.738Z,61.93
2022-10-11T12:05:06.396Z,61.12
2022-10-11T12:06:09.365Z,63.64
2022-10-11T12:08:06.967Z,62.05
2022-10-11T12:09:09.767Z,63.04
2022-10-11T12:10:12.478Z,64.77
2022-10-11T12:11:47.656Z,64.86
2022-10-11T12:12:50.647Z,63.24
2022-10-11T12:13:53.368Z,62.39
2022-10-11T12:15:27.854Z,63.62
2022-10-11T12:16:30.555Z,64.06
2022-10-11T12:17:33.403Z,62.84
2022-10-11T12:19:07.933Z,62.43
2022-10-11T12:20:10.859Z,61.22
2022-10-11T12:21:14.259Z,61.50
2022-10-11T12:22:49.003Z,61.82
2022-10-11T12:23:51.833Z,60.70
2022-10-11T12:24:54.621Z,62.80
2022-10-11T12:26:36.179Z,62.51
2022-10-11T12:27:39.265Z,61.75
2022-10-11T12:28:42.527Z,62.69
2022-10-11T12:30:20.841Z,62.93
2022-10-11T12:31:23.628Z,64.32
2022-10-11T12:32:32.122Z,61.10
2022-10-11T12:34:06.799Z,62.43
2022-10-11T12:35:09.748Z,62.44
2022-10-11T12:36:14.959Z,60.90
2022-10-11T12:37:52.735Z,61.41
2022-10-11T12:38:55.520Z,62.89
2022-10-11T12:39:58.247Z,62.83
2022-10-11T12:41:33.006Z,62.18
2022-10-11T12:42:35.812Z,62.49
2022-10-11T12:43:38.501Z,62.09
2022-10-11T12:45:13.100Z,59.52
2022-10-11T12:46:16.027Z,60.38
2022-10-11T12:47:19.002Z,61.66
2022-10-11T12:48:53.767Z,58.92
2022-10-11T12:49:56.702Z,58.16
2022-10-11T12:51:02.919Z,57.25
2022-10-11T12:52:37.872Z,56.64
2022-10-11T12:53:40.746Z,57.11
2022-10-11T12:55:23.285Z,58.18
2022-10-11T12:56:58.425Z,57.41
2022-10-11T12:58:06.945Z,57.28
2022-10-11T12:59:09.822Z,57.44
2022-10-11T13:00:17.064Z,57.80
2022-10-11T13:01:20.294Z,58.05
2022-10-11T13:02:23.601Z,57.85
2022-10-11T13:03:58.349Z,58.00
2022-10-11T13:05:01.019Z,58.14
2022-10-11T13:06:07.654Z,59.16
2022-10-11T13:07:47.413Z,57.85
2022-10-11T13:08:50.180Z,58.97
2022-10-11T13:09:54.891Z,58.09
2022-10-11T13:11:29.331Z,59.08
2022-10-11T13:12:32.231Z,58.95
2022-10-11T13:13:35.116Z,58.55
2022-10-11T13:15:10.033Z,60.02
2022-10-11T13:16:13.623Z,59.06
2022-10-11T13:17:16.421Z,58.89
2022-10-11T13:18:56.505Z,60.60
2022-10-11T13:19:59.397Z,59.82
2022-10-11T13:21:02.328Z,59.14
2022-10-11T13:22:41.751Z,59.14
2022-10-11T13:23:44.752Z,60.83
2022-10-11T13:24:47.548Z,60.79
2022-10-11T13:26:22.119Z,61.16
2022-10-11T13:27:24.951Z,61.68
2022-10-11T13:28:27.768Z,59.82
2022-10-11T13:30:05.726Z,61.65
2022-10-11T13:31:09.120Z,62.37
2022-10-11T13:32:12.076Z,62.43
2022-10-11T13:33:46.637Z,61.50
2022-10-11T13:34:49.610Z,60.04
2022-10-11T13:35:53.525Z,60.96
2022-10-11T13:37:28.728Z,59.42
2022-10-11T13:38:31.569Z,59.86
2022-10-11T13:39:37.141Z,60.14
2022-10-11T13:41:11.889Z,60.74
2022-10-11T13:42:14.713Z,61.82
2022-10-11T13:43:17.391Z,60.03
2022-10-11T13:44:51.963Z,60.27
2022-10-11T13:45:54.689Z,60.72
2022-10-11T13:46:57.833Z,61.31
2022-10-11T13:48:37.646Z,61.56
2022-10-11T13:49:40.450Z,61.57
2022-10-11T13:50:43.336Z,62.06
2022-10-11T13:52:17.793Z,63.18
2022-10-11T13:53:20.549Z,63.14
2022-10-11T13:54:23.210Z,63.27
2022-10-11T13:55:57.818Z,63.71
2022-10-11T13:57:01.369Z,64.42
2022-10-11T13:58:04.056Z,65.11
2022-10-11T13:59:42.550Z,66.15
2022-10-11T14:00:18.146Z,65.54
2022-10-11T14:01:21.261Z,65.51
2022-10-11T14:02:24.567Z,65.60
2022-10-11T14:03:59.967Z,65.87
2022-10-11T14:05:09.120Z,66.38
2022-10-11T14:06:12.646Z,66.51
2022-10-11T14:07:47.323Z,65.91
2022-10-11T14:08:50.007Z,65.94
2022-10-11T14:09:52.891Z,65.92
2022-10-11T14:11:27.573Z,65.91
2022-10-11T14:12:30.245Z,66.14
2022-10-11T14:13:33.081Z,66.41
2022-10-11T14:15:07.970Z,65.45
2022-10-11T14:16:11.424Z,66.71
2022-10-11T14:17:14.201Z,67.52
2022-10-11T14:18:48.895Z,67.81
2022-10-11T14:19:51.722Z,67.99
2022-10-11T14:21:03.998Z,68.58
2022-10-11T14:22:38.732Z,67.87
2022-10-11T14:23:41.636Z,68.17
2022-10-11T14:24:44.270Z,68.35
2022-10-11T14:26:24.417Z,69.07
2022-10-11T14:27:27.129Z,69.07
2022-10-11T14:28:30.198Z,69.17
2022-10-11T14:30:30.495Z,67.60
2022-10-11T14:31:35.819Z,68.11
2022-10-11T14:32:40.700Z,68.15
2022-10-11T14:34:15.358Z,68.09
2022-10-11T14:35:18.016Z,67.36
2022-10-11T14:36:20.884Z,67.36
2022-10-11T14:37:55.449Z,68.04
2022-10-11T14:38:58.171Z,66.93
2022-10-11T14:40:00.890Z,66.92
2022-10-11T14:41:35.641Z,65.87
2022-10-11T14:42:38.384Z,67.48
2022-10-11T14:43:41.188Z,67.68
2022-10-11T14:45:15.815Z,68.45
2022-10-11T14:46:18.745Z,68.53
2022-10-11T14:47:21.643Z,68.45
2022-10-11T14:49:34.495Z,69.61
2022-10-11T14:50:37.342Z,69.73
2022-10-11T14:51:40.045Z,70.25
2022-10-11T14:53:14.723Z,70.31
2022-10-11T14:54:21.382Z,70.39
2022-10-11T14:55:24.130Z,70.28
2022-10-11T14:57:05.054Z,70.74
2022-10-11T14:58:07.892Z,70.50
2022-10-11T14:59:10.679Z,70.34
2022-10-11T15:00:17.628Z,70.89
2022-10-11T15:01:20.611Z,71.24
2022-10-11T15:02:23.732Z,71.07
2022-10-11T15:03:58.428Z,70.88
2022-10-11T15:05:01.222Z,71.78
2022-10-11T15:06:04.467Z,71.96
2022-10-11T15:07:39.337Z,71.82
2022-10-11T15:08:42.593Z,70.87
2022-10-11T15:09:45.306Z,72.35
2022-10-11T15:11:20.013Z,72.23
2022-10-11T15:12:23.024Z,72.15
2022-10-11T15:13:25.925Z,72.44
2022-10-11T15:15:00.565Z,72.59
2022-10-11T15:16:09.212Z,73.21
2022-10-11T15:17:12.130Z,73.18
2022-10-11T15:18:46.672Z,73.17
2022-10-11T15:19:49.345Z,73.46
2022-10-11T15:20:52.221Z,70.99
2022-10-11T15:22:26.726Z,71.19
2022-10-11T15:23:29.474Z,68.28
2022-10-11T15:24:32.165Z,67.56
2022-10-11T15:26:12.067Z,68.31
2022-10-11T15:27:14.800Z,69.15
2022-10-11T15:28:17.734Z,67.71
2022-10-11T15:29:53.452Z,68.00
2022-10-11T15:30:56.329Z,69.08
2022-10-11T15:31:59.192Z,68.49
2022-10-11T15:33:33.654Z,69.24
2022-10-11T15:34:36.565Z,69.81
2022-10-11T15:35:39.551Z,70.01
2022-10-11T15:37:14.095Z,70.38
2022-10-11T15:38:23.266Z,70.31
2022-10-11T15:39:26.009Z,70.48
2022-10-11T15:41:00.492Z,72.62
2022-10-11T15:42:03.349Z,72.97
2022-10-11T15:43:06.075Z,72.84
2022-10-11T15:44:47.086Z,73.18
2022-10-11T15:45:49.827Z,75.08
2022-10-11T15:46:53.054Z,75.63
2022-10-11T15:48:27.542Z,75.75
2022-10-11T15:49:30.214Z,76.24
2022-10-11T15:50:32.965Z,75.90
2022-10-11T15:52:07.390Z,75.97
2022-10-11T15:53:10.263Z,75.51